sensor_id;sensor_type;location;lat;lon;timestamp;P1;durP1;ratioP1;P2;durP2;ratioP2
7003;SDS011;3542;48.812;9.146;2022-12-18T00:01:49;54.50;;;23.50;;
7003;SDS011;3542;48.812;9.146;2022-12-18T00:04:18;54.87;;;23.77;;
7003;SDS011;3542;48.812;9.146;2022-12-18T00:06:46;54.87;;;23.53;;
7003;SDS011;3542;48.812;9.146;2022-12-18T00:09:12;60.03;;;24.00;;
7003;SDS011;3542;48.812;9.146;2022-12-18T00:11:37;64.80;;;23.00;;
7003;SDS011;3542;48.812;9.146;2022-12-18T00:14:03;53.57;;;22.20;;
7003;SDS011;3542;48.812;9.146;2022-12-18T00:16:29;51.70;;;23.33;;
7003;SDS011;3542;48.812;9.146;2022-12-18T00:18:57;64.10;;;22.40;;
7003;SDS011;3542;48.812;9.146;2022-12-18T00:21:24;54.90;;;23.23;;
7003;SDS011;3542;48.812;9.146;2022-12-18T00:23:51;65.93;;;24.87;;
7003;SDS011;3542;48.812;9.146;2022-12-18T00:26:17;56.40;;;22.73;;
7003;SDS011;3542;48.812;9.146;2022-12-18T00:28:48;49.70;;;20.83;;
7003;SDS011;3542;48.812;9.146;2022-12-18T00:31:18;63.00;;;23.73;;
7003;SDS011;3542;48.812;9.146;2022-12-18T00:33:45;58.37;;;22.37;;
7003;SDS011;3542;48.812;9.146;2022-12-18T00:36:13;57.93;;;22.83;;
7003;SDS011;3542;48.812;9.146;2022-12-18T00:38:40;65.20;;;22.80;;
7003;SDS011;3542;48.812;9.146;2022-12-18T00:41:09;46.83;;;22.87;;
7003;SDS011;3542;48.812;9.146;2022-12-18T00:43:36;64.50;;;23.97;;
7003;SDS011;3542;48.812;9.146;2022-12-18T00:46:02;52.90;;;22.83;;
7003;SDS011;3542;48.812;9.146;2022-12-18T00:48:28;50.83;;;21.70;;
7003;SDS011;3542;48.812;9.146;2022-12-18T00:50:53;59.03;;;23.83;;
7003;SDS011;3542;48.812;9.146;2022-12-18T00:53:19;48.63;;;24.00;;
7003;SDS011;3542;48.812;9.146;2022-12-18T00:55:45;48.97;;;21.83;;
7003;SDS011;3542;48.812;9.146;2022-12-18T00:58:11;49.57;;;22.37;;
7003;SDS011;3542;48.812;9.146;2022-12-18T01:00:38;56.87;;;24.00;;
7003;SDS011;3542;48.812;9.146;2022-12-18T01:03:03;51.80;;;21.77;;
7003;SDS011;3542;48.812;9.146;2022-12-18T01:05:30;54.73;;;22.90;;
7003;SDS011;3542;48.812;9.146;2022-12-18T01:07:55;55.57;;;22.40;;
7003;SDS011;3542;48.812;9.146;2022-12-18T01:10:21;53.03;;;20.77;;
7003;SDS011;3542;48.812;9.146;2022-12-18T01:12:47;64.17;;;22.67;;
7003;SDS011;3542;48.812;9.146;2022-12-18T01:15:13;57.07;;;22.00;;
7003;SDS011;3542;48.812;9.146;2022-12-18T01:17:40;42.20;;;20.77;;
7003;SDS011;3542;48.812;9.146;2022-12-18T01:20:06;63.97;;;24.20;;
7003;SDS011;3542;48.812;9.146;2022-12-18T01:22:32;53.80;;;21.30;;
7003;SDS011;3542;48.812;9.146;2022-12-18T01:24:57;54.20;;;21.40;;
7003;SDS011;3542;48.812;9.146;2022-12-18T01:27:23;47.83;;;19.70;;
7003;SDS011;3542;48.812;9.146;2022-12-18T01:29:48;53.00;;;22.17;;
7003;SDS011;3542;48.812;9.146;2022-12-18T01:32:14;55.93;;;21.40;;
7003;SDS011;3542;48.812;9.146;2022-12-18T01:34:40;47.60;;;21.07;;
7003;SDS011;3542;48.812;9.146;2022-12-18T01:37:05;48.80;;;22.53;;
7003;SDS011;3542;48.812;9.146;2022-12-18T01:39:31;46.17;;;21.40;;
7003;SDS011;3542;48.812;9.146;2022-12-18T01:41:57;48.97;;;22.00;;
7003;SDS011;3542;48.812;9.146;2022-12-18T01:50:07;51.80;;;21.40;;
7003;SDS011;3542;48.812;9.146;2022-12-18T01:52:33;48.13;;;19.97;;
7003;SDS011;3542;48.812;9.146;2022-12-18T01:55:00;48.90;;;21.80;;
7003;SDS011;3542;48.812;9.146;2022-12-18T01:57:29;60.93;;;22.20;;
7003;SDS011;3542;48.812;9.146;2022-12-18T01:59:56;56.13;;;22.80;;
7003;SDS011;3542;48.812;9.146;2022-12-18T03:35:41;51.30;;;22.00;;
7003;SDS011;3542;48.812;9.146;2022-12-18T03:38:07;60.40;;;22.57;;
7003;SDS011;3542;48.812;9.146;2022-12-18T03:41:23;59.63;;;20.27;;
7003;SDS011;3542;48.812;9.146;2022-12-18T03:46:24;52.90;;;20.67;;
7003;SDS011;3542;48.812;9.146;2022-12-18T03:49:03;54.17;;;22.60;;
7003;SDS011;3542;48.812;9.146;2022-12-18T03:51:47;46.03;;;20.87;;
7003;SDS011;3542;48.812;9.146;2022-12-18T03:54:18;50.03;;;21.63;;
7003;SDS011;3542;48.812;9.146;2022-12-18T03:56:46;45.90;;;21.10;;
7003;SDS011;3542;48.812;9.146;2022-12-18T03:59:16;47.43;;;21.27;;
7003;SDS011;3542;48.812;9.146;2022-12-18T04:01:47;48.60;;;20.73;;
7003;SDS011;3542;48.812;9.146;2022-12-18T04:04:17;53.53;;;21.60;;
7003;SDS011;3542;48.812;9.146;2022-12-18T04:06:43;54.63;;;22.30;;
7003;SDS011;3542;48.812;9.146;2022-12-18T04:09:12;59.20;;;20.20;;
7003;SDS011;3542;48.812;9.146;2022-12-18T04:11:38;49.17;;;20.77;;
7003;SDS011;3542;48.812;9.146;2022-12-18T04:14:05;50.83;;;19.50;;
7003;SDS011;3542;48.812;9.146;2022-12-18T04:16:31;44.30;;;20.07;;
7003;SDS011;3542;48.812;9.146;2022-12-18T04:18:56;54.50;;;22.40;;
7003;SDS011;3542;48.812;9.146;2022-12-18T04:21:22;47.47;;;21.10;;
7003;SDS011;3542;48.812;9.146;2022-12-18T04:23:48;41.97;;;18.47;;
7003;SDS011;3542;48.812;9.146;2022-12-18T04:26:13;54.27;;;19.93;;
7003;SDS011;3542;48.812;9.146;2022-12-18T04:28:39;50.73;;;21.10;;
7003;SDS011;3542;48.812;9.146;2022-12-18T04:31:04;44.83;;;19.03;;
7003;SDS011;3542;48.812;9.146;2022-12-18T04:33:30;46.90;;;22.20;;
7003;SDS011;3542;48.812;9.146;2022-12-18T04:35:56;49.60;;;20.60;;
7003;SDS011;3542;48.812;9.146;2022-12-18T04:38:21;46.40;;;22.30;;
7003;SDS011;3542;48.812;9.146;2022-12-18T04:40:47;41.33;;;19.67;;
7003;SDS011;3542;48.812;9.146;2022-12-18T04:43:12;50.40;;;18.30;;
7003;SDS011;3542;48.812;9.146;2022-12-18T04:45:38;49.17;;;19.13;;
7003;SDS011;3542;48.812;9.146;2022-12-18T04:48:04;52.60;;;18.87;;
7003;SDS011;3542;48.812;9.146;2022-12-18T04:50:30;37.97;;;17.37;;
7003;SDS011;3542;48.812;9.146;2022-12-18T04:52:55;38.47;;;16.77;;
7003;SDS011;3542;48.812;9.146;2022-12-18T04:55:21;43.37;;;16.83;;
7003;SDS011;3542;48.812;9.146;2022-12-18T04:57:50;41.13;;;18.67;;
7003;SDS011;3542;48.812;9.146;2022-12-18T05:00:15;37.70;;;18.13;;
7003;SDS011;3542;48.812;9.146;2022-12-18T05:02:41;44.23;;;20.33;;
7003;SDS011;3542;48.812;9.146;2022-12-18T05:05:07;32.47;;;17.07;;
7003;SDS011;3542;48.812;9.146;2022-12-18T05:07:33;48.97;;;19.33;;
7003;SDS011;3542;48.812;9.146;2022-12-18T05:09:58;38.27;;;17.50;;
7003;SDS011;3542;48.812;9.146;2022-12-18T05:12:24;45.40;;;20.00;;
7003;SDS011;3542;48.812;9.146;2022-12-18T05:14:49;35.37;;;17.80;;
7003;SDS011;3542;48.812;9.146;2022-12-18T05:17:15;46.73;;;17.70;;
7003;SDS011;3542;48.812;9.146;2022-12-18T05:19:41;42.10;;;18.90;;
7003;SDS011;3542;48.812;9.146;2022-12-18T05:22:07;37.07;;;16.73;;
7003;SDS011;3542;48.812;9.146;2022-12-18T05:24:32;34.70;;;16.90;;
7003;SDS011;3542;48.812;9.146;2022-12-18T05:26:58;42.70;;;19.60;;
7003;SDS011;3542;48.812;9.146;2022-12-18T05:29:24;37.40;;;19.03;;
7003;SDS011;3542;48.812;9.146;2022-12-18T05:31:50;35.83;;;17.57;;
7003;SDS011;3542;48.812;9.146;2022-12-18T05:34:15;34.90;;;16.50;;
7003;SDS011;3542;48.812;9.146;2022-12-18T05:36:41;34.97;;;16.27;;
7003;SDS011;3542;48.812;9.146;2022-12-18T05:39:06;40.20;;;16.27;;
7003;SDS011;3542;48.812;9.146;2022-12-18T05:41:32;38.00;;;18.40;;
7003;SDS011;3542;48.812;9.146;2022-12-18T05:43:58;34.07;;;15.73;;
7003;SDS011;3542;48.812;9.146;2022-12-18T05:46:23;34.73;;;16.50;;
7003;SDS011;3542;48.812;9.146;2022-12-18T05:48:49;36.50;;;17.83;;
7003;SDS011;3542;48.812;9.146;2022-12-18T05:51:17;35.33;;;15.77;;
7003;SDS011;3542;48.812;9.146;2022-12-18T05:53:44;43.57;;;18.73;;
7003;SDS011;3542;48.812;9.146;2022-12-18T05:56:11;35.00;;;17.63;;
7003;SDS011;3542;48.812;9.146;2022-12-18T05:58:39;34.10;;;16.47;;
7003;SDS011;3542;48.812;9.146;2022-12-18T06:01:15;37.83;;;17.53;;
7003;SDS011;3542;48.812;9.146;2022-12-18T06:03:42;33.97;;;15.57;;
7003;SDS011;3542;48.812;9.146;2022-12-18T06:06:24;34.87;;;16.10;;
7003;SDS011;3542;48.812;9.146;2022-12-18T06:08:51;35.10;;;16.07;;
7003;SDS011;3542;48.812;9.146;2022-12-18T06:11:27;35.10;;;17.20;;
7003;SDS011;3542;48.812;9.146;2022-12-18T06:13:53;32.27;;;16.03;;
7003;SDS011;3542;48.812;9.146;2022-12-18T06:16:20;38.73;;;17.97;;
7003;SDS011;3542;48.812;9.146;2022-12-18T06:18:45;34.50;;;14.73;;
7003;SDS011;3542;48.812;9.146;2022-12-18T06:21:11;42.50;;;17.20;;
7003;SDS011;3542;48.812;9.146;2022-12-18T06:23:36;34.77;;;14.57;;
7003;SDS011;3542;48.812;9.146;2022-12-18T06:26:03;37.70;;;15.70;;
7003;SDS011;3542;48.812;9.146;2022-12-18T06:28:32;38.23;;;14.70;;
7003;SDS011;3542;48.812;9.146;2022-12-18T06:30:58;37.23;;;16.50;;
7003;SDS011;3542;48.812;9.146;2022-12-18T06:33:25;33.33;;;16.03;;
7003;SDS011;3542;48.812;9.146;2022-12-18T06:35:52;36.33;;;15.43;;
7003;SDS011;3542;48.812;9.146;2022-12-18T06:38:17;32.13;;;15.70;;
7003;SDS011;3542;48.812;9.146;2022-12-18T06:40:43;38.90;;;16.20;;
7003;SDS011;3542;48.812;9.146;2022-12-18T06:43:08;37.23;;;17.40;;
7003;SDS011;3542;48.812;9.146;2022-12-18T06:45:34;35.30;;;16.30;;
7003;SDS011;3542;48.812;9.146;2022-12-18T06:47:59;35.80;;;15.83;;
7003;SDS011;3542;48.812;9.146;2022-12-18T06:50:25;30.87;;;16.07;;
7003;SDS011;3542;48.812;9.146;2022-12-18T06:52:51;34.57;;;14.27;;
7003;SDS011;3542;48.812;9.146;2022-12-18T06:55:16;25.47;;;14.67;;
7003;SDS011;3542;48.812;9.146;2022-12-18T06:57:42;37.63;;;14.10;;
7003;SDS011;3542;48.812;9.146;2022-12-18T07:00:08;38.10;;;16.80;;
7003;SDS011;3542;48.812;9.146;2022-12-18T07:02:34;36.40;;;16.47;;
7003;SDS011;3542;48.812;9.146;2022-12-18T07:05:00;41.17;;;16.77;;
7003;SDS011;3542;48.812;9.146;2022-12-18T07:07:25;35.63;;;14.90;;
7003;SDS011;3542;48.812;9.146;2022-12-18T07:09:51;32.97;;;15.27;;
7003;SDS011;3542;48.812;9.146;2022-12-18T07:12:17;34.80;;;15.87;;
7003;SDS011;3542;48.812;9.146;2022-12-18T07:14:42;29.60;;;13.87;;
7003;SDS011;3542;48.812;9.146;2022-12-18T07:17:08;35.43;;;15.03;;
7003;SDS011;3542;48.812;9.146;2022-12-18T07:19:33;37.33;;;17.40;;
7003;SDS011;3542;48.812;9.146;2022-12-18T07:21:59;38.33;;;16.07;;
7003;SDS011;3542;48.812;9.146;2022-12-18T07:24:25;53.57;;;17.20;;
7003;SDS011;3542;48.812;9.146;2022-12-18T07:26:50;35.73;;;14.87;;
7003;SDS011;3542;48.812;9.146;2022-12-18T07:29:16;38.00;;;15.37;;
7003;SDS011;3542;48.812;9.146;2022-12-18T07:31:42;32.97;;;15.73;;
7003;SDS011;3542;48.812;9.146;2022-12-18T07:34:10;28.30;;;13.80;;
7003;SDS011;3542;48.812;9.146;2022-12-18T07:36:37;35.00;;;16.43;;
7003;SDS011;3542;48.812;9.146;2022-12-18T07:39:03;39.43;;;16.27;;
7003;SDS011;3542;48.812;9.146;2022-12-18T07:41:29;32.50;;;16.20;;
7003;SDS011;3542;48.812;9.146;2022-12-18T07:43:54;29.30;;;14.37;;
7003;SDS011;3542;48.812;9.146;2022-12-18T07:46:20;36.60;;;14.33;;
7003;SDS011;3542;48.812;9.146;2022-12-18T07:48:46;31.20;;;15.60;;
7003;SDS011;3542;48.812;9.146;2022-12-18T07:51:12;39.67;;;18.07;;
7003;SDS011;3542;48.812;9.146;2022-12-18T07:53:38;40.23;;;20.20;;
7003;SDS011;3542;48.812;9.146;2022-12-18T07:56:06;44.30;;;19.50;;
7003;SDS011;3542;48.812;9.146;2022-12-18T07:58:33;34.43;;;16.13;;
7003;SDS011;3542;48.812;9.146;2022-12-18T08:01:03;31.67;;;13.50;;
7003;SDS011;3542;48.812;9.146;2022-12-18T08:03:29;35.10;;;15.97;;
7003;SDS011;3542;48.812;9.146;2022-12-18T08:05:58;31.80;;;16.30;;
7003;SDS011;3542;48.812;9.146;2022-12-18T08:08:24;33.13;;;17.20;;
7003;SDS011;3542;48.812;9.146;2022-12-18T08:10:50;31.97;;;16.20;;
7003;SDS011;3542;48.812;9.146;2022-12-18T08:13:15;44.23;;;16.83;;
7003;SDS011;3542;48.812;9.146;2022-12-18T08:15:41;40.73;;;16.03;;
7003;SDS011;3542;48.812;9.146;2022-12-18T08:18:06;33.03;;;15.60;;
7003;SDS011;3542;48.812;9.146;2022-12-18T08:20:32;34.63;;;16.97;;
7003;SDS011;3542;48.812;9.146;2022-12-18T08:22:57;48.70;;;19.93;;
7003;SDS011;3542;48.812;9.146;2022-12-18T08:25:23;45.37;;;19.13;;
7003;SDS011;3542;48.812;9.146;2022-12-18T08:27:48;39.53;;;19.57;;
7003;SDS011;3542;48.812;9.146;2022-12-18T08:30:14;41.00;;;18.30;;
7003;SDS011;3542;48.812;9.146;2022-12-18T08:32:40;37.33;;;16.80;;
7003;SDS011;3542;48.812;9.146;2022-12-18T08:35:05;42.70;;;20.17;;
7003;SDS011;3542;48.812;9.146;2022-12-18T08:37:32;41.63;;;20.50;;
7003;SDS011;3542;48.812;9.146;2022-12-18T08:39:58;46.80;;;21.23;;
7003;SDS011;3542;48.812;9.146;2022-12-18T08:42:24;51.47;;;20.13;;
7003;SDS011;3542;48.812;9.146;2022-12-18T08:45:08;43.00;;;19.67;;
7003;SDS011;3542;48.812;9.146;2022-12-18T08:47:34;45.37;;;20.50;;
7003;SDS011;3542;48.812;9.146;2022-12-18T08:49:59;43.83;;;20.20;;
7003;SDS011;3542;48.812;9.146;2022-12-18T08:52:25;43.63;;;20.17;;
7003;SDS011;3542;48.812;9.146;2022-12-18T08:54:50;48.33;;;21.50;;
7003;SDS011;3542;48.812;9.146;2022-12-18T08:57:16;49.87;;;20.97;;
7003;SDS011;3542;48.812;9.146;2022-12-18T08:59:41;45.60;;;20.50;;
7003;SDS011;3542;48.812;9.146;2022-12-18T09:02:09;48.70;;;22.93;;
7003;SDS011;3542;48.812;9.146;2022-12-18T09:04:35;43.37;;;20.73;;
7003;SDS011;3542;48.812;9.146;2022-12-18T09:07:01;49.60;;;22.87;;
7003;SDS011;3542;48.812;9.146;2022-12-18T09:09:26;55.77;;;22.20;;
7003;SDS011;3542;48.812;9.146;2022-12-18T09:11:56;55.73;;;24.77;;
7003;SDS011;3542;48.812;9.146;2022-12-18T09:14:22;50.07;;;23.10;;
7003;SDS011;3542;48.812;9.146;2022-12-18T09:16:48;47.30;;;21.93;;
7003;SDS011;3542;48.812;9.146;2022-12-18T09:19:17;37.73;;;20.27;;
7003;SDS011;3542;48.812;9.146;2022-12-18T09:21:54;51.67;;;24.07;;
7003;SDS011;3542;48.812;9.146;2022-12-18T09:24:27;47.00;;;21.83;;
7003;SDS011;3542;48.812;9.146;2022-12-18T09:26:59;37.57;;;19.03;;
7003;SDS011;3542;48.812;9.146;2022-12-18T09:29:34;41.70;;;20.50;;
7003;SDS011;3542;48.812;9.146;2022-12-18T09:32:05;55.47;;;24.63;;
7003;SDS011;3542;48.812;9.146;2022-12-18T09:34:39;41.83;;;20.63;;
7003;SDS011;3542;48.812;9.146;2022-12-18T09:37:07;42.83;;;20.97;;
7003;SDS011;3542;48.812;9.146;2022-12-18T09:39:33;44.53;;;20.83;;
7003;SDS011;3542;48.812;9.146;2022-12-18T09:42:01;38.90;;;19.67;;
7003;SDS011;3542;48.812;9.146;2022-12-18T09:44:49;45.63;;;22.93;;
7003;SDS011;3542;48.812;9.146;2022-12-18T09:47:35;51.67;;;23.33;;
7003;SDS011;3542;48.812;9.146;2022-12-18T09:50:13;62.50;;;27.20;;
7003;SDS011;3542;48.812;9.146;2022-12-18T09:52:56;42.50;;;21.87;;
7003;SDS011;3542;48.812;9.146;2022-12-18T10:01:09;83.80;;;30.87;;
7003;SDS011;3542;48.812;9.146;2022-12-18T10:03:41;42.33;;;20.37;;
7003;SDS011;3542;48.812;9.146;2022-12-18T10:15:10;39.50;;;21.43;;
7003;SDS011;3542;48.812;9.146;2022-12-18T10:18:18;47.33;;;22.80;;
7003;SDS011;3542;48.812;9.146;2022-12-18T10:21:04;50.40;;;21.57;;
7003;SDS011;3542;48.812;9.146;2022-12-18T10:26:43;51.63;;;23.00;;
7003;SDS011;3542;48.812;9.146;2022-12-18T10:29:10;55.23;;;22.40;;
7003;SDS011;3542;48.812;9.146;2022-12-18T10:31:38;46.97;;;22.07;;
7003;SDS011;3542;48.812;9.146;2022-12-18T10:34:08;44.73;;;22.60;;
7003;SDS011;3542;48.812;9.146;2022-12-18T10:36:37;44.57;;;21.80;;
7003;SDS011;3542;48.812;9.146;2022-12-18T10:41:47;50.33;;;22.70;;
7003;SDS011;3542;48.812;9.146;2022-12-18T10:44:18;39.43;;;20.80;;
7003;SDS011;3542;48.812;9.146;2022-12-18T10:46:46;46.30;;;19.77;;
7003;SDS011;3542;48.812;9.146;2022-12-18T10:49:18;54.23;;;27.10;;
7003;SDS011;3542;48.812;9.146;2022-12-18T10:51:47;44.37;;;22.03;;
7003;SDS011;3542;48.812;9.146;2022-12-18T10:54:14;60.17;;;22.13;;
7003;SDS011;3542;48.812;9.146;2022-12-18T10:56:43;88.23;;;31.43;;
7003;SDS011;3542;48.812;9.146;2022-12-18T10:59:11;90.53;;;26.53;;
7003;SDS011;3542;48.812;9.146;2022-12-18T11:01:49;60.43;;;22.00;;
7003;SDS011;3542;48.812;9.146;2022-12-18T11:04:23;73.03;;;24.27;;
7003;SDS011;3542;48.812;9.146;2022-12-18T11:06:57;118.07;;;30.93;;
7003;SDS011;3542;48.812;9.146;2022-12-18T11:09:24;59.70;;;25.17;;
7003;SDS011;3542;48.812;9.146;2022-12-18T11:11:52;87.53;;;23.23;;
7003;SDS011;3542;48.812;9.146;2022-12-18T11:14:24;111.10;;;28.07;;
7003;SDS011;3542;48.812;9.146;2022-12-18T11:16:53;109.27;;;24.97;;
7003;SDS011;3542;48.812;9.146;2022-12-18T11:19:23;211.60;;;47.73;;
7003;SDS011;3542;48.812;9.146;2022-12-18T11:21:51;112.90;;;24.30;;
7003;SDS011;3542;48.812;9.146;2022-12-18T11:24:19;115.80;;;24.97;;
7003;SDS011;3542;48.812;9.146;2022-12-18T11:26:46;125.10;;;26.67;;
7003;SDS011;3542;48.812;9.146;2022-12-18T11:29:22;108.47;;;23.40;;
7003;SDS011;3542;48.812;9.146;2022-12-18T11:31:55;115.77;;;21.83;;
7003;SDS011;3542;48.812;9.146;2022-12-18T11:34:46;111.73;;;22.33;;
7003;SDS011;3542;48.812;9.146;2022-12-18T11:37:15;116.30;;;22.17;;
7003;SDS011;3542;48.812;9.146;2022-12-18T11:39:55;117.83;;;23.43;;
7003;SDS011;3542;48.812;9.146;2022-12-18T11:42:35;118.47;;;23.47;;
7003;SDS011;3542;48.812;9.146;2022-12-18T11:47:59;128.70;;;26.70;;
7003;SDS011;3542;48.812;9.146;2022-12-18T11:53:02;91.03;;;20.43;;
7003;SDS011;3542;48.812;9.146;2022-12-18T11:58:25;98.00;;;20.73;;
7003;SDS011;3542;48.812;9.146;2022-12-18T12:01:14;112.83;;;21.37;;
7003;SDS011;3542;48.812;9.146;2022-12-18T12:09:44;101.33;;;18.30;;
7003;SDS011;3542;48.812;9.146;2022-12-18T12:15:22;106.13;;;19.90;;
7003;SDS011;3542;48.812;9.146;2022-12-18T12:18:07;101.17;;;18.03;;
7003;SDS011;3542;48.812;9.146;2022-12-18T12:23:45;103.30;;;18.80;;
7003;SDS011;3542;48.812;9.146;2022-12-18T12:26:44;107.43;;;20.23;;
7003;SDS011;3542;48.812;9.146;2022-12-18T12:39:52;105.33;;;19.80;;
7003;SDS011;3542;48.812;9.146;2022-12-18T12:45:18;103.13;;;18.77;;
7003;SDS011;3542;48.812;9.146;2022-12-18T12:47:51;109.27;;;20.67;;
7003;SDS011;3542;48.812;9.146;2022-12-18T12:50:19;108.97;;;22.10;;
7003;SDS011;3542;48.812;9.146;2022-12-18T12:52:52;105.07;;;21.93;;
7003;SDS011;3542;48.812;9.146;2022-12-18T12:55:21;97.80;;;18.20;;
7003;SDS011;3542;48.812;9.146;2022-12-18T13:03:43;108.40;;;19.83;;
7003;SDS011;3542;48.812;9.146;2022-12-18T13:06:22;100.07;;;18.43;;
7003;SDS011;3542;48.812;9.146;2022-12-18T13:08:56;102.27;;;19.47;;
7003;SDS011;3542;48.812;9.146;2022-12-18T13:11:34;106.37;;;20.27;;
7003;SDS011;3542;48.812;9.146;2022-12-18T13:14:20;104.03;;;19.80;;
7003;SDS011;3542;48.812;9.146;2022-12-18T13:19:40;103.17;;;20.00;;
7003;SDS011;3542;48.812;9.146;2022-12-18T13:22:12;104.80;;;18.67;;
7003;SDS011;3542;48.812;9.146;2022-12-18T13:24:49;106.53;;;20.00;;
7003;SDS011;3542;48.812;9.146;2022-12-18T13:30:51;101.27;;;18.80;;
7003;SDS011;3542;48.812;9.146;2022-12-18T13:35:39;107.30;;;21.60;;
7003;SDS011;3542;48.812;9.146;2022-12-18T13:38:21;104.43;;;21.00;;
7003;SDS011;3542;48.812;9.146;2022-12-18T13:40:59;102.40;;;18.87;;
7003;SDS011;3542;48.812;9.146;2022-12-18T13:43:30;100.83;;;18.50;;
7003;SDS011;3542;48.812;9.146;2022-12-18T13:51:39;95.93;;;19.73;;
7003;SDS011;3542;48.812;9.146;2022-12-18T13:54:17;104.27;;;19.40;;
7003;SDS011;3542;48.812;9.146;2022-12-18T13:56:55;134.37;;;38.07;;
7003;SDS011;3542;48.812;9.146;2022-12-18T13:59:25;145.07;;;34.77;;
7003;SDS011;3542;48.812;9.146;2022-12-18T14:01:59;114.50;;;20.50;;
7003;SDS011;3542;48.812;9.146;2022-12-18T14:04:31;116.60;;;21.17;;
7003;SDS011;3542;48.812;9.146;2022-12-18T14:07:01;113.40;;;19.63;;
7003;SDS011;3542;48.812;9.146;2022-12-18T14:09:35;110.97;;;18.33;;
7003;SDS011;3542;48.812;9.146;2022-12-18T14:12:04;115.17;;;20.90;;
7003;SDS011;3542;48.812;9.146;2022-12-18T14:14:49;107.90;;;19.90;;
7003;SDS011;3542;48.812;9.146;2022-12-18T14:17:17;111.70;;;21.73;;
7003;SDS011;3542;48.812;9.146;2022-12-18T14:19:44;116.93;;;21.30;;
7003;SDS011;3542;48.812;9.146;2022-12-18T14:22:16;109.37;;;19.07;;
7003;SDS011;3542;48.812;9.146;2022-12-18T14:25:06;113.70;;;21.50;;
7003;SDS011;3542;48.812;9.146;2022-12-18T14:27:44;98.17;;;18.83;;
7003;SDS011;3542;48.812;9.146;2022-12-18T14:35:33;87.37;;;19.63;;
7003;SDS011;3542;48.812;9.146;2022-12-18T14:41:06;97.60;;;19.97;;
7003;SDS011;3542;48.812;9.146;2022-12-18T14:43:37;89.13;;;22.60;;
7003;SDS011;3542;48.812;9.146;2022-12-18T14:46:04;100.07;;;22.17;;
7003;SDS011;3542;48.812;9.146;2022-12-18T14:48:50;94.03;;;21.50;;
7003;SDS011;3542;48.812;9.146;2022-12-18T14:51:19;92.10;;;21.87;;
7003;SDS011;3542;48.812;9.146;2022-12-18T14:53:53;98.33;;;25.03;;
7003;SDS011;3542;48.812;9.146;2022-12-18T14:56:21;94.13;;;24.40;;
7003;SDS011;3542;48.812;9.146;2022-12-18T14:58:49;82.03;;;21.40;;
7003;SDS011;3542;48.812;9.146;2022-12-18T15:01:19;91.03;;;20.90;;
7003;SDS011;3542;48.812;9.146;2022-12-18T15:03:47;88.80;;;23.23;;
7003;SDS011;3542;48.812;9.146;2022-12-18T15:06:17;104.70;;;22.57;;
7003;SDS011;3542;48.812;9.146;2022-12-18T15:08:49;104.30;;;23.03;;
7003;SDS011;3542;48.812;9.146;2022-12-18T15:11:34;101.70;;;24.10;;
7003;SDS011;3542;48.812;9.146;2022-12-18T15:17:00;106.93;;;24.00;;
7003;SDS011;3542;48.812;9.146;2022-12-18T15:19:41;112.00;;;25.50;;
7003;SDS011;3542;48.812;9.146;2022-12-18T15:24:49;80.83;;;22.17;;
7003;SDS011;3542;48.812;9.146;2022-12-18T15:27:23;79.67;;;23.27;;
7003;SDS011;3542;48.812;9.146;2022-12-18T15:30:00;87.43;;;24.80;;
7003;SDS011;3542;48.812;9.146;2022-12-18T15:32:32;100.80;;;25.03;;
7003;SDS011;3542;48.812;9.146;2022-12-18T15:37:49;97.93;;;23.30;;
7003;SDS011;3542;48.812;9.146;2022-12-18T15:40:17;56.90;;;23.97;;
7003;SDS011;3542;48.812;9.146;2022-12-18T15:42:44;62.40;;;22.53;;
7003;SDS011;3542;48.812;9.146;2022-12-18T15:45:29;71.73;;;22.07;;
7003;SDS011;3542;48.812;9.146;2022-12-18T15:47:55;70.53;;;23.30;;
7003;SDS011;3542;48.812;9.146;2022-12-18T15:50:21;69.00;;;21.90;;
7003;SDS011;3542;48.812;9.146;2022-12-18T15:52:48;81.97;;;24.10;;
7003;SDS011;3542;48.812;9.146;2022-12-18T15:55:17;69.73;;;22.70;;
7003;SDS011;3542;48.812;9.146;2022-12-18T15:58:06;84.20;;;22.33;;
7003;SDS011;3542;48.812;9.146;2022-12-18T16:00:35;74.83;;;21.03;;
7003;SDS011;3542;48.812;9.146;2022-12-18T16:03:04;100.20;;;22.87;;
7003;SDS011;3542;48.812;9.146;2022-12-18T16:05:30;95.20;;;24.53;;
7003;SDS011;3542;48.812;9.146;2022-12-18T16:07:56;95.63;;;23.53;;
7003;SDS011;3542;48.812;9.146;2022-12-18T16:10:23;85.10;;;25.23;;
7003;SDS011;3542;48.812;9.146;2022-12-18T16:12:49;92.90;;;23.23;;
7003;SDS011;3542;48.812;9.146;2022-12-18T16:15:15;90.30;;;24.13;;
7003;SDS011;3542;48.812;9.146;2022-12-18T16:17:41;84.30;;;22.90;;
7003;SDS011;3542;48.812;9.146;2022-12-18T16:20:15;83.87;;;24.77;;
7003;SDS011;3542;48.812;9.146;2022-12-18T16:22:42;80.83;;;24.20;;
7003;SDS011;3542;48.812;9.146;2022-12-18T16:25:16;80.60;;;24.13;;
7003;SDS011;3542;48.812;9.146;2022-12-18T16:27:48;79.33;;;22.33;;
7003;SDS011;3542;48.812;9.146;2022-12-18T16:30:14;84.27;;;24.10;;
7003;SDS011;3542;48.812;9.146;2022-12-18T16:32:41;83.77;;;22.50;;
7003;SDS011;3542;48.812;9.146;2022-12-18T16:35:09;90.77;;;24.27;;
7003;SDS011;3542;48.812;9.146;2022-12-18T16:37:36;91.30;;;24.60;;
7003;SDS011;3542;48.812;9.146;2022-12-18T16:40:02;96.60;;;24.67;;
7003;SDS011;3542;48.812;9.146;2022-12-18T16:42:28;95.67;;;25.17;;
7003;SDS011;3542;48.812;9.146;2022-12-18T16:44:53;96.27;;;22.00;;
7003;SDS011;3542;48.812;9.146;2022-12-18T16:47:19;92.07;;;21.60;;
7003;SDS011;3542;48.812;9.146;2022-12-18T16:49:45;75.43;;;21.73;;
7003;SDS011;3542;48.812;9.146;2022-12-18T16:52:10;83.77;;;22.30;;
7003;SDS011;3542;48.812;9.146;2022-12-18T16:54:36;66.73;;;22.27;;
7003;SDS011;3542;48.812;9.146;2022-12-18T16:57:02;88.07;;;26.80;;
7003;SDS011;3542;48.812;9.146;2022-12-18T16:59:29;73.30;;;21.20;;
7003;SDS011;3542;48.812;9.146;2022-12-18T17:01:55;78.70;;;22.67;;
7003;SDS011;3542;48.812;9.146;2022-12-18T17:04:21;81.87;;;21.90;;
7003;SDS011;3542;48.812;9.146;2022-12-18T17:06:47;86.97;;;24.77;;
7003;SDS011;3542;48.812;9.146;2022-12-18T17:09:16;99.33;;;24.10;;
7003;SDS011;3542;48.812;9.146;2022-12-18T17:11:46;84.83;;;24.03;;
7003;SDS011;3542;48.812;9.146;2022-12-18T17:14:13;86.67;;;24.13;;
7003;SDS011;3542;48.812;9.146;2022-12-18T17:16:40;78.27;;;23.77;;
7003;SDS011;3542;48.812;9.146;2022-12-18T17:19:06;78.63;;;23.43;;
7003;SDS011;3542;48.812;9.146;2022-12-18T17:21:32;80.53;;;25.03;;
7003;SDS011;3542;48.812;9.146;2022-12-18T17:24:00;83.83;;;25.40;;
7003;SDS011;3542;48.812;9.146;2022-12-18T17:26:26;83.00;;;24.60;;
7003;SDS011;3542;48.812;9.146;2022-12-18T17:28:52;98.50;;;27.53;;
7003;SDS011;3542;48.812;9.146;2022-12-18T17:31:21;101.07;;;26.90;;
7003;SDS011;3542;48.812;9.146;2022-12-18T17:33:48;83.33;;;23.77;;
7003;SDS011;3542;48.812;9.146;2022-12-18T17:36:14;100.90;;;24.23;;
7003;SDS011;3542;48.812;9.146;2022-12-18T17:38:41;93.20;;;26.00;;
7003;SDS011;3542;48.812;9.146;2022-12-18T17:41:07;93.53;;;23.07;;
7003;SDS011;3542;48.812;9.146;2022-12-18T17:43:35;87.40;;;26.63;;
7003;SDS011;3542;48.812;9.146;2022-12-18T17:46:03;79.10;;;25.40;;
7003;SDS011;3542;48.812;9.146;2022-12-18T17:48:30;65.97;;;24.57;;
7003;SDS011;3542;48.812;9.146;2022-12-18T17:51:03;68.83;;;23.03;;
7003;SDS011;3542;48.812;9.146;2022-12-18T17:53:39;69.63;;;25.17;;
7003;SDS011;3542;48.812;9.146;2022-12-18T17:56:12;71.30;;;23.03;;
7003;SDS011;3542;48.812;9.146;2022-12-18T17:58:45;70.00;;;24.57;;
7003;SDS011;3542;48.812;9.146;2022-12-18T18:01:12;82.40;;;24.40;;
7003;SDS011;3542;48.812;9.146;2022-12-18T18:03:40;86.07;;;25.97;;
7003;SDS011;3542;48.812;9.146;2022-12-18T18:06:06;84.30;;;26.43;;
7003;SDS011;3542;48.812;9.146;2022-12-18T18:08:32;90.43;;;26.80;;
7003;SDS011;3542;48.812;9.146;2022-12-18T18:11:02;89.17;;;24.33;;